F\d Erato — SW8206 — position and weather

sailwx.info

Track history (hours):
 
Tides and Currents Weather Stations Pressure Air Temp Water Temp Dewpoint Dewpoint Depression Visibility Wind Speed Wind Dir Waves Ship Positions

F\d Erato

Last reported at 2015-Mar-03 16:33 UTC. Time now 2015-Mar-04 16:44 UTC.
Position N 37°58' E 023°34'.

Length 35 m; draft 1.8 m.

Type: Ship (hazmat cat B). MMSI: 237034100.

Date/timePositionNaut miles runAvg speedWind from/ knotsBaromVisibWave heightAir tempDewpointWater temp
2015-Mar-03 16:33N 37°58' E 023°34'4 4.4
2015-Mar-03 15:34N 37°54' E 023°31'1010.3
2015-Mar-03 14:33N 37°45' E 023°25'1413.8
2015-Mar-03 13:34N 37°56' E 023°35'6 5.8
2015-Mar-03 12:34N 37°52' E 023°29'3 0.7
2015-Mar-03 07:33N 37°50' E 023°26'5 5.2
2015-Mar-03 06:34N 37°45' E 023°24'1110.8
2015-Mar-03 05:34N 37°54' E 023°32'8 0.6
2015-Mar-02 16:34N 37°47' E 023°27'1111.1
2015-Mar-02 15:33N 37°55' E 023°36'1312.8
2015-Mar-02 14:30N 37°45' E 023°26'1515.8
2015-Mar-02 13:33N 37°56' E 023°38'1211.5
2015-Mar-02 12:33N 37°48' E 023°27'3 0.7
2015-Mar-02 07:18N 37°45' E 023°25'1 1.3
2015-Mar-02 06:33N 37°45' E 023°26'1212.2
2015-Mar-02 05:34N 37°54' E 023°35'11 0.8
2015-Mar-01 16:34N 37°46' E 023°25'1110.7
2015-Mar-01 15:34N 37°54' E 023°35'1211.3
2015-Mar-01 14:30N 37°45' E 023°26'1515.9
2015-Mar-01 13:33N 37°56' E 023°37'12 3.9
2015-Mar-01 10:33N 37°48' E 023°27'1010.5
2015-Mar-01 09:33N 37°55' E 023°36'1312.9
2015-Mar-01 08:31N 37°45' E 023°26'1212.9
2015-Mar-01 07:34N 37°54' E 023°35'8 0.6
2015-Feb-28 16:34N 37°48' E 023°28'1 1.1
2015-Feb-28 15:34N 37°49' E 023°29'3 2.7
2015-Feb-28 14:33N 37°47' E 023°27'1212.4
2015-Feb-28 13:33N 37°56' E 023°37'8 2.5
2015-Feb-28 10:33N 37°52' E 023°29'2 2.3
2015-Feb-28 09:33N 37°51' E 023°27'6 5.7
2015-Feb-28 08:34N 37°45' E 023°25'1111.2
2015-Feb-28 07:34N 37°55' E 023°33'10 0.6
2015-Feb-27 16:33N 37°47' E 023°25'9 9.2
2015-Feb-27 15:34N 37°54' E 023°32'1110.4
2015-Feb-27 14:30N 37°45' E 023°25'1314.3
2015-Feb-27 13:34N 37°55' E 023°35'9 9.3
2015-Feb-27 12:34N 37°49' E 023°27'7 1.3
2015-Feb-27 07:34N 37°54' E 023°32'1110.6
2015-Feb-27 06:33N 37°45' E 023°26'1212.0
2015-Feb-27 05:34N 37°55' E 023°33'8 0.6
2015-Feb-26 16:33N 37°48' E 023°28'8 7.7
2015-Feb-26 15:34N 37°54' E 023°34'1111.1
2015-Feb-26 14:33N 37°45' E 023°26'1515.0
2015-Feb-26 13:33N 37°56' E 023°37'1312.7
2015-Feb-26 12:33N 37°47' E 023°26'14 3.4
2015-Feb-26 08:33N 37°57' E 023°39'6 6.3
2015-Feb-26 07:34N 37°54' E 023°31'1010.3
2015-Feb-26 06:33N 37°45' E 023°26'1212.0
2015-Feb-26 05:34N 37°55' E 023°33'9 0.7
2015-Feb-25 16:33N 37°47' E 023°27'8 7.9
2015-Feb-25 15:34N 37°54' E 023°32'1110.6
2015-Feb-25 14:33N 37°45' E 023°26'1514.6
2015-Feb-25 13:34N 37°56' E 023°37'1212.4
2015-Feb-25 12:34N 37°47' E 023°26'8 1.6
2015-Feb-25 07:34N 37°53' E 023°33'1110.5
2015-Feb-25 06:33N 37°45' E 023°25'1212.3
2015-Feb-25 05:34N 37°54' E 023°35'11 0.8
2015-Feb-24 16:34N 37°47' E 023°26'1111.2
2015-Feb-24 15:34N 37°56' E 023°34'1312.4
2015-Feb-24 14:31N 37°45' E 023°26'1515.4
2015-Feb-24 13:34N 37°56' E 023°37'1212.2
2015-Feb-24 12:33N 37°48' E 023°26'13 3.1
2015-Feb-24 08:11N 37°57' E 023°39'1625.1
2015-Feb-24 07:34N 37°45' E 023°25'8 8.0
2015-Feb-24 06:34N 37°52' E 023°30'5 5.2
2015-Feb-24 05:34N 37°56' E 023°34'4 0.3
2015-Feb-23 16:33N 37°53' E 023°31'6 6.2
2015-Feb-23 15:33N 37°49' E 023°26'1 1.1
2015-Feb-23 14:33N 37°48' E 023°27'8 8.1
2015-Feb-23 13:33N 37°54' E 023°33'11 0.5
2015-Feb-22 15:13N 37°45' E 023°26'2 3.1
2015-Feb-22 14:33N 37°47' E 023°25'1211.8
2015-Feb-22 13:34N 37°55' E 023°36'13 5.3
2015-Feb-22 11:04N 37°45' E 023°26'1223.7
2015-Feb-22 10:33N 37°55' E 023°34'6 5.6
2015-Feb-22 09:34N 37°51' E 023°28'4 3.6
2015-Feb-22 08:34N 37°48' E 023°27'8 8.3
2015-Feb-22 07:33N 37°55' E 023°33'  
Track history (hours):
 
Tides and Currents Weather Stations Pressure Air Temp Water Temp Dewpoint Dewpoint Depression Visibility Wind Speed Wind Dir Waves Ship Positions

F\d Erato

Last reported at 2015-Mar-03 16:33 UTC. Time now 2015-Mar-04 16:44 UTC.
Position N 37°58' E 023°34'.

Length 35 m; draft 1.8 m.

Type: Ship (hazmat cat B). MMSI: 237034100.

Date/timePositionNaut miles runAvg speedWind from/ knotsBaromVisibWave heightAir tempDewpointWater temp
2015-Mar-03 16:33N 37°58' E 023°34'4 4.4
2015-Mar-03 15:34N 37°54' E 023°31'1010.3
2015-Mar-03 14:33N 37°45' E 023°25'1413.8
2015-Mar-03 13:34N 37°56' E 023°35'6 5.8
2015-Mar-03 12:34N 37°52' E 023°29'3 0.7
2015-Mar-03 07:33N 37°50' E 023°26'5 5.2
2015-Mar-03 06:34N 37°45' E 023°24'1110.8
2015-Mar-03 05:34N 37°54' E 023°32'8 0.6
2015-Mar-02 16:34N 37°47' E 023°27'1111.1
2015-Mar-02 15:33N 37°55' E 023°36'1312.8
2015-Mar-02 14:30N 37°45' E 023°26'1515.8
2015-Mar-02 13:33N 37°56' E 023°38'1211.5
2015-Mar-02 12:33N 37°48' E 023°27'3 0.7
2015-Mar-02 07:18N 37°45' E 023°25'1 1.3
2015-Mar-02 06:33N 37°45' E 023°26'1212.2
2015-Mar-02 05:34N 37°54' E 023°35'11 0.8
2015-Mar-01 16:34N 37°46' E 023°25'1110.7
2015-Mar-01 15:34N 37°54' E 023°35'1211.3
2015-Mar-01 14:30N 37°45' E 023°26'1515.9
2015-Mar-01 13:33N 37°56' E 023°37'12 3.9
2015-Mar-01 10:33N 37°48' E 023°27'1010.5
2015-Mar-01 09:33N 37°55' E 023°36'1312.9
2015-Mar-01 08:31N 37°45' E 023°26'1212.9
2015-Mar-01 07:34N 37°54' E 023°35'8 0.6
2015-Feb-28 16:34N 37°48' E 023°28'1 1.1
2015-Feb-28 15:34N 37°49' E 023°29'3 2.7
2015-Feb-28 14:33N 37°47' E 023°27'1212.4
2015-Feb-28 13:33N 37°56' E 023°37'8 2.5
2015-Feb-28 10:33N 37°52' E 023°29'2 2.3
2015-Feb-28 09:33N 37°51' E 023°27'6 5.7
2015-Feb-28 08:34N 37°45' E 023°25'1111.2
2015-Feb-28 07:34N 37°55' E 023°33'10 0.6
2015-Feb-27 16:33N 37°47' E 023°25'9 9.2
2015-Feb-27 15:34N 37°54' E 023°32'1110.4
2015-Feb-27 14:30N 37°45' E 023°25'1314.3
2015-Feb-27 13:34N 37°55' E 023°35'9 9.3
2015-Feb-27 12:34N 37°49' E 023°27'7 1.3
2015-Feb-27 07:34N 37°54' E 023°32'1110.6
2015-Feb-27 06:33N 37°45' E 023°26'1212.0
2015-Feb-27 05:34N 37°55' E 023°33'8 0.6
2015-Feb-26 16:33N 37°48' E 023°28'8 7.7
2015-Feb-26 15:34N 37°54' E 023°34'1111.1
2015-Feb-26 14:33N 37°45' E 023°26'1515.0
2015-Feb-26 13:33N 37°56' E 023°37'1312.7
2015-Feb-26 12:33N 37°47' E 023°26'14 3.4
2015-Feb-26 08:33N 37°57' E 023°39'6 6.3
2015-Feb-26 07:34N 37°54' E 023°31'1010.3
2015-Feb-26 06:33N 37°45' E 023°26'1212.0
2015-Feb-26 05:34N 37°55' E 023°33'9 0.7
2015-Feb-25 16:33N 37°47' E 023°27'8 7.9
2015-Feb-25 15:34N 37°54' E 023°32'1110.6
2015-Feb-25 14:33N 37°45' E 023°26'1514.6
2015-Feb-25 13:34N 37°56' E 023°37'1212.4
2015-Feb-25 12:34N 37°47' E 023°26'8 1.6
2015-Feb-25 07:34N 37°53' E 023°33'1110.5
2015-Feb-25 06:33N 37°45' E 023°25'1212.3
2015-Feb-25 05:34N 37°54' E 023°35'11 0.8
2015-Feb-24 16:34N 37°47' E 023°26'1111.2
2015-Feb-24 15:34N 37°56' E 023°34'1312.4
2015-Feb-24 14:31N 37°45' E 023°26'1515.4
2015-Feb-24 13:34N 37°56' E 023°37'1212.2
2015-Feb-24 12:33N 37°48' E 023°26'13 3.1
2015-Feb-24 08:11N 37°57' E 023°39'1625.1
2015-Feb-24 07:34N 37°45' E 023°25'8 8.0
2015-Feb-24 06:34N 37°52' E 023°30'5 5.2
2015-Feb-24 05:34N 37°56' E 023°34'4 0.3
2015-Feb-23 16:33N 37°53' E 023°31'6 6.2
2015-Feb-23 15:33N 37°49' E 023°26'1 1.1
2015-Feb-23 14:33N 37°48' E 023°27'8 8.1
2015-Feb-23 13:33N 37°54' E 023°33'11 0.5
2015-Feb-22 15:13N 37°45' E 023°26'2 3.1
2015-Feb-22 14:33N 37°47' E 023°25'1211.8
2015-Feb-22 13:34N 37°55' E 023°36'13 5.3
2015-Feb-22 11:04N 37°45' E 023°26'1223.7
2015-Feb-22 10:33N 37°55' E 023°34'6 5.6
2015-Feb-22 09:34N 37°51' E 023°28'4 3.6
2015-Feb-22 08:34N 37°48' E 023°27'8 8.3
2015-Feb-22 07:33N 37°55' E 023°33'  

Dump ship's entire track history